sensor_id;sensor_type;location;lat;lon;timestamp;P1;durP1;ratioP1;P2;durP2;ratioP2
51332;SDS011;37417;48.118;11.734;2022-08-30T00:01:32;12.82;;;8.55;;
51332;SDS011;37417;48.118;11.734;2022-08-30T00:04:18;11.05;;;8.50;;
51332;SDS011;37417;48.118;11.734;2022-08-30T00:07:04;8.48;;;6.60;;
51332;SDS011;37417;48.118;11.734;2022-08-30T00:09:49;9.02;;;7.70;;
51332;SDS011;37417;48.118;11.734;2022-08-30T00:12:35;9.93;;;8.02;;
51332;SDS011;37417;48.118;11.734;2022-08-30T00:15:21;10.50;;;7.88;;
51332;SDS011;37417;48.118;11.734;2022-08-30T00:18:07;10.15;;;7.72;;
51332;SDS011;37417;48.118;11.734;2022-08-30T00:20:53;11.45;;;7.43;;
51332;SDS011;37417;48.118;11.734;2022-08-30T00:23:40;13.77;;;8.07;;
51332;SDS011;37417;48.118;11.734;2022-08-30T00:26:25;11.02;;;8.25;;
51332;SDS011;37417;48.118;11.734;2022-08-30T00:29:11;10.25;;;8.52;;
51332;SDS011;37417;48.118;11.734;2022-08-30T00:31:56;12.55;;;7.93;;
51332;SDS011;37417;48.118;11.734;2022-08-30T00:34:42;12.50;;;8.25;;
51332;SDS011;37417;48.118;11.734;2022-08-30T00:37:28;9.50;;;7.55;;
51332;SDS011;37417;48.118;11.734;2022-08-30T00:40:13;10.43;;;7.82;;
51332;SDS011;37417;48.118;11.734;2022-08-30T00:43:03;8.93;;;7.45;;
51332;SDS011;37417;48.118;11.734;2022-08-30T00:45:49;8.68;;;7.45;;
51332;SDS011;37417;48.118;11.734;2022-08-30T00:48:36;9.65;;;7.80;;
51332;SDS011;37417;48.118;11.734;2022-08-30T00:51:22;11.95;;;8.75;;
51332;SDS011;37417;48.118;11.734;2022-08-30T00:54:08;10.25;;;8.02;;
51332;SDS011;37417;48.118;11.734;2022-08-30T00:56:54;10.32;;;7.60;;
51332;SDS011;37417;48.118;11.734;2022-08-30T00:59:40;11.15;;;7.50;;
51332;SDS011;37417;48.118;11.734;2022-08-30T01:02:27;12.77;;;7.97;;
51332;SDS011;37417;48.118;11.734;2022-08-30T01:05:15;8.30;;;7.50;;
51332;SDS011;37417;48.118;11.734;2022-08-30T01:08:00;9.43;;;7.90;;
51332;SDS011;37417;48.118;11.734;2022-08-30T01:10:46;13.10;;;7.90;;
51332;SDS011;37417;48.118;11.734;2022-08-30T01:13:32;11.18;;;8.18;;
51332;SDS011;37417;48.118;11.734;2022-08-30T01:16:18;9.98;;;7.78;;
51332;SDS011;37417;48.118;11.734;2022-08-30T01:19:05;9.52;;;7.72;;
51332;SDS011;37417;48.118;11.734;2022-08-30T01:21:56;12.00;;;8.38;;
51332;SDS011;37417;48.118;11.734;2022-08-30T01:24:43;9.52;;;7.20;;
51332;SDS011;37417;48.118;11.734;2022-08-30T01:27:31;9.30;;;7.97;;
51332;SDS011;37417;48.118;11.734;2022-08-30T01:30:19;10.48;;;7.40;;
51332;SDS011;37417;48.118;11.734;2022-08-30T01:33:05;12.00;;;8.18;;
51332;SDS011;37417;48.118;11.734;2022-08-30T01:35:53;13.18;;;7.65;;
51332;SDS011;37417;48.118;11.734;2022-08-30T01:38:45;10.32;;;8.07;;
51332;SDS011;37417;48.118;11.734;2022-08-30T01:41:33;9.85;;;8.02;;
51332;SDS011;37417;48.118;11.734;2022-08-30T01:44:18;10.60;;;9.45;;
51332;SDS011;37417;48.118;11.734;2022-08-30T01:47:04;12.10;;;9.43;;
51332;SDS011;37417;48.118;11.734;2022-08-30T01:49:50;16.83;;;8.43;;
51332;SDS011;37417;48.118;11.734;2022-08-30T01:52:36;10.00;;;8.65;;
51332;SDS011;37417;48.118;11.734;2022-08-30T01:55:21;10.60;;;8.88;;
51332;SDS011;37417;48.118;11.734;2022-08-30T01:58:07;9.82;;;8.75;;
51332;SDS011;37417;48.118;11.734;2022-08-30T02:00:53;9.93;;;8.32;;
51332;SDS011;37417;48.118;11.734;2022-08-30T02:03:40;10.18;;;8.25;;
51332;SDS011;37417;48.118;11.734;2022-08-30T02:06:25;9.65;;;8.38;;
51332;SDS011;37417;48.118;11.734;2022-08-30T02:09:11;9.25;;;7.32;;
51332;SDS011;37417;48.118;11.734;2022-08-30T02:11:57;9.13;;;7.68;;
51332;SDS011;37417;48.118;11.734;2022-08-30T02:14:43;10.50;;;8.07;;
51332;SDS011;37417;48.118;11.734;2022-08-30T02:17:28;10.45;;;8.00;;
51332;SDS011;37417;48.118;11.734;2022-08-30T02:20:14;9.10;;;7.90;;
51332;SDS011;37417;48.118;11.734;2022-08-30T02:23:00;8.80;;;7.75;;
51332;SDS011;37417;48.118;11.734;2022-08-30T02:25:45;8.88;;;7.18;;
51332;SDS011;37417;48.118;11.734;2022-08-30T02:28:31;14.05;;;7.53;;
51332;SDS011;37417;48.118;11.734;2022-08-30T02:31:17;12.77;;;7.55;;
51332;SDS011;37417;48.118;11.734;2022-08-30T02:34:03;9.50;;;8.07;;
51332;SDS011;37417;48.118;11.734;2022-08-30T02:36:48;10.00;;;7.95;;
51332;SDS011;37417;48.118;11.734;2022-08-30T02:39:34;8.52;;;7.60;;
51332;SDS011;37417;48.118;11.734;2022-08-30T02:42:19;10.05;;;7.82;;
51332;SDS011;37417;48.118;11.734;2022-08-30T02:45:05;10.73;;;7.40;;
51332;SDS011;37417;48.118;11.734;2022-08-30T02:47:51;10.68;;;7.95;;
51332;SDS011;37417;48.118;11.734;2022-08-30T02:50:40;9.35;;;8.00;;
51332;SDS011;37417;48.118;11.734;2022-08-30T02:53:26;10.82;;;7.43;;
51332;SDS011;37417;48.118;11.734;2022-08-30T02:56:12;8.82;;;7.78;;
51332;SDS011;37417;48.118;11.734;2022-08-30T02:58:58;9.13;;;7.40;;
51332;SDS011;37417;48.118;11.734;2022-08-30T03:01:43;10.93;;;7.55;;
51332;SDS011;37417;48.118;11.734;2022-08-30T03:04:29;9.20;;;7.35;;
51332;SDS011;37417;48.118;11.734;2022-08-30T03:07:15;8.35;;;7.35;;
51332;SDS011;37417;48.118;11.734;2022-08-30T03:10:00;8.48;;;7.68;;
51332;SDS011;37417;48.118;11.734;2022-08-30T03:12:46;8.52;;;7.18;;
51332;SDS011;37417;48.118;11.734;2022-08-30T03:15:33;8.93;;;7.68;;
51332;SDS011;37417;48.118;11.734;2022-08-30T03:18:19;7.03;;;6.32;;
51332;SDS011;37417;48.118;11.734;2022-08-30T03:21:09;7.53;;;6.75;;
51332;SDS011;37417;48.118;11.734;2022-08-30T03:23:55;8.57;;;7.10;;
51332;SDS011;37417;48.118;11.734;2022-08-30T03:26:40;9.70;;;7.10;;
51332;SDS011;37417;48.118;11.734;2022-08-30T03:29:26;9.02;;;7.07;;
51332;SDS011;37417;48.118;11.734;2022-08-30T03:32:13;8.93;;;6.97;;
51332;SDS011;37417;48.118;11.734;2022-08-30T03:34:59;7.53;;;6.70;;
51332;SDS011;37417;48.118;11.734;2022-08-30T03:37:45;8.98;;;7.07;;
51332;SDS011;37417;48.118;11.734;2022-08-30T03:40:30;9.25;;;7.38;;
51332;SDS011;37417;48.118;11.734;2022-08-30T03:43:16;9.98;;;7.63;;
51332;SDS011;37417;48.118;11.734;2022-08-30T03:46:02;9.85;;;6.82;;
51332;SDS011;37417;48.118;11.734;2022-08-30T03:48:47;7.63;;;6.93;;
51332;SDS011;37417;48.118;11.734;2022-08-30T03:51:33;7.60;;;6.85;;
51332;SDS011;37417;48.118;11.734;2022-08-30T03:54:19;11.73;;;7.53;;
51332;SDS011;37417;48.118;11.734;2022-08-30T03:57:04;8.07;;;7.28;;
51332;SDS011;37417;48.118;11.734;2022-08-30T03:59:50;7.93;;;7.05;;
51332;SDS011;37417;48.118;11.734;2022-08-30T04:02:36;10.98;;;7.68;;
51332;SDS011;37417;48.118;11.734;2022-08-30T04:05:21;10.15;;;7.32;;
51332;SDS011;37417;48.118;11.734;2022-08-30T04:08:07;8.48;;;7.65;;
51332;SDS011;37417;48.118;11.734;2022-08-30T04:10:53;9.77;;;7.28;;
51332;SDS011;37417;48.118;11.734;2022-08-30T04:13:39;7.93;;;7.13;;
51332;SDS011;37417;48.118;11.734;2022-08-30T04:16:25;7.50;;;6.57;;
51332;SDS011;37417;48.118;11.734;2022-08-30T04:19:10;7.97;;;6.40;;
51332;SDS011;37417;48.118;11.734;2022-08-30T04:21:56;12.40;;;6.40;;
51332;SDS011;37417;48.118;11.734;2022-08-30T04:24:42;10.38;;;6.97;;
51332;SDS011;37417;48.118;11.734;2022-08-30T04:27:27;9.88;;;7.35;;
51332;SDS011;37417;48.118;11.734;2022-08-30T04:30:13;7.70;;;6.90;;
51332;SDS011;37417;48.118;11.734;2022-08-30T04:32:59;12.48;;;6.65;;
51332;SDS011;37417;48.118;11.734;2022-08-30T04:35:46;10.43;;;7.03;;
51332;SDS011;37417;48.118;11.734;2022-08-30T04:38:33;8.15;;;6.70;;
51332;SDS011;37417;48.118;11.734;2022-08-30T04:41:19;8.85;;;7.95;;
51332;SDS011;37417;48.118;11.734;2022-08-30T04:44:05;10.77;;;7.47;;
51332;SDS011;37417;48.118;11.734;2022-08-30T04:46:52;10.10;;;6.45;;
51332;SDS011;37417;48.118;11.734;2022-08-30T04:49:38;9.70;;;7.47;;
51332;SDS011;37417;48.118;11.734;2022-08-30T04:52:23;8.30;;;7.15;;
51332;SDS011;37417;48.118;11.734;2022-08-30T04:55:09;13.55;;;7.70;;
51332;SDS011;37417;48.118;11.734;2022-08-30T04:57:55;11.95;;;7.55;;
51332;SDS011;37417;48.118;11.734;2022-08-30T05:00:42;9.68;;;7.68;;
51332;SDS011;37417;48.118;11.734;2022-08-30T05:03:28;11.27;;;7.72;;
51332;SDS011;37417;48.118;11.734;2022-08-30T05:06:13;11.50;;;7.50;;
51332;SDS011;37417;48.118;11.734;2022-08-30T05:08:59;8.07;;;7.25;;
51332;SDS011;37417;48.118;11.734;2022-08-30T05:11:46;15.75;;;8.05;;
51332;SDS011;37417;48.118;11.734;2022-08-30T05:14:31;9.05;;;7.55;;
51332;SDS011;37417;48.118;11.734;2022-08-30T05:17:18;7.80;;;6.25;;
51332;SDS011;37417;48.118;11.734;2022-08-30T05:20:07;7.78;;;5.75;;
51332;SDS011;37417;48.118;11.734;2022-08-30T05:22:53;7.88;;;5.97;;
51332;SDS011;37417;48.118;11.734;2022-08-30T05:25:39;7.25;;;5.53;;
51332;SDS011;37417;48.118;11.734;2022-08-30T05:28:25;7.45;;;5.13;;
51332;SDS011;37417;48.118;11.734;2022-08-30T05:31:12;5.53;;;5.00;;
51332;SDS011;37417;48.118;11.734;2022-08-30T05:33:58;7.25;;;5.00;;
51332;SDS011;37417;48.118;11.734;2022-08-30T05:36:43;5.53;;;4.82;;
51332;SDS011;37417;48.118;11.734;2022-08-30T05:39:29;5.03;;;4.20;;
51332;SDS011;37417;48.118;11.734;2022-08-30T05:42:14;6.30;;;4.43;;
51332;SDS011;37417;48.118;11.734;2022-08-30T05:45:00;6.43;;;4.53;;
51332;SDS011;37417;48.118;11.734;2022-08-30T05:47:46;8.93;;;4.78;;
51332;SDS011;37417;48.118;11.734;2022-08-30T05:50:32;6.10;;;4.32;;
51332;SDS011;37417;48.118;11.734;2022-08-30T05:53:17;6.75;;;3.95;;
51332;SDS011;37417;48.118;11.734;2022-08-30T05:56:04;5.70;;;4.18;;
51332;SDS011;37417;48.118;11.734;2022-08-30T05:58:50;6.05;;;3.70;;
51332;SDS011;37417;48.118;11.734;2022-08-30T06:01:36;5.40;;;4.03;;
51332;SDS011;37417;48.118;11.734;2022-08-30T06:04:24;5.93;;;3.67;;
51332;SDS011;37417;48.118;11.734;2022-08-30T06:07:10;4.80;;;4.20;;
51332;SDS011;37417;48.118;11.734;2022-08-30T06:09:55;11.38;;;3.97;;
51332;SDS011;37417;48.118;11.734;2022-08-30T06:12:41;6.75;;;4.35;;
51332;SDS011;37417;48.118;11.734;2022-08-30T06:15:26;5.15;;;3.25;;
51332;SDS011;37417;48.118;11.734;2022-08-30T06:18:12;4.60;;;3.50;;
51332;SDS011;37417;48.118;11.734;2022-08-30T06:20:57;4.72;;;3.30;;
51332;SDS011;37417;48.118;11.734;2022-08-30T06:23:43;4.88;;;3.40;;
51332;SDS011;37417;48.118;11.734;2022-08-30T06:26:29;4.47;;;3.42;;
51332;SDS011;37417;48.118;11.734;2022-08-30T06:29:16;3.78;;;3.40;;
51332;SDS011;37417;48.118;11.734;2022-08-30T06:32:02;3.97;;;3.25;;
51332;SDS011;37417;48.118;11.734;2022-08-30T06:34:48;7.18;;;4.18;;
51332;SDS011;37417;48.118;11.734;2022-08-30T06:37:33;8.75;;;4.00;;
51332;SDS011;37417;48.118;11.734;2022-08-30T06:40:19;8.15;;;3.72;;
51332;SDS011;37417;48.118;11.734;2022-08-30T06:43:05;3.58;;;3.20;;
51332;SDS011;37417;48.118;11.734;2022-08-30T06:45:51;3.72;;;3.30;;
51332;SDS011;37417;48.118;11.734;2022-08-30T06:48:37;4.85;;;3.17;;
51332;SDS011;37417;48.118;11.734;2022-08-30T06:51:23;3.28;;;2.97;;
51332;SDS011;37417;48.118;11.734;2022-08-30T06:54:09;8.15;;;2.92;;
51332;SDS011;37417;48.118;11.734;2022-08-30T06:56:54;5.15;;;3.15;;
51332;SDS011;37417;48.118;11.734;2022-08-30T06:59:40;4.72;;;3.13;;
51332;SDS011;37417;48.118;11.734;2022-08-30T07:02:26;8.20;;;3.25;;
51332;SDS011;37417;48.118;11.734;2022-08-30T07:05:11;4.97;;;3.70;;
51332;SDS011;37417;48.118;11.734;2022-08-30T07:07:57;7.28;;;3.28;;
51332;SDS011;37417;48.118;11.734;2022-08-30T07:10:43;3.95;;;3.25;;
51332;SDS011;37417;48.118;11.734;2022-08-30T07:13:28;4.28;;;3.42;;
51332;SDS011;37417;48.118;11.734;2022-08-30T07:16:14;4.10;;;3.42;;
51332;SDS011;37417;48.118;11.734;2022-08-30T07:19:02;3.70;;;3.28;;
51332;SDS011;37417;48.118;11.734;2022-08-30T07:21:48;4.18;;;3.70;;
51332;SDS011;37417;48.118;11.734;2022-08-30T07:24:34;2.83;;;2.55;;
51332;SDS011;37417;48.118;11.734;2022-08-30T07:27:20;8.88;;;3.10;;
51332;SDS011;37417;48.118;11.734;2022-08-30T07:30:06;3.10;;;2.80;;
51332;SDS011;37417;48.118;11.734;2022-08-30T07:32:52;5.53;;;2.88;;
51332;SDS011;37417;48.118;11.734;2022-08-30T07:35:37;3.65;;;3.35;;
51332;SDS011;37417;48.118;11.734;2022-08-30T07:38:23;3.85;;;3.00;;
51332;SDS011;37417;48.118;11.734;2022-08-30T07:41:08;4.28;;;2.97;;
51332;SDS011;37417;48.118;11.734;2022-08-30T07:43:59;4.32;;;3.28;;
51332;SDS011;37417;48.118;11.734;2022-08-30T07:46:45;6.68;;;3.88;;
51332;SDS011;37417;48.118;11.734;2022-08-30T07:49:31;5.50;;;3.13;;
51332;SDS011;37417;48.118;11.734;2022-08-30T07:52:16;6.57;;;3.55;;
51332;SDS011;37417;48.118;11.734;2022-08-30T07:55:02;5.45;;;3.30;;
51332;SDS011;37417;48.118;11.734;2022-08-30T07:57:48;3.72;;;3.42;;
51332;SDS011;37417;48.118;11.734;2022-08-30T08:00:34;3.80;;;3.13;;
51332;SDS011;37417;48.118;11.734;2022-08-30T08:03:19;5.50;;;3.85;;
51332;SDS011;37417;48.118;11.734;2022-08-30T08:06:05;3.92;;;3.63;;
51332;SDS011;37417;48.118;11.734;2022-08-30T08:08:51;5.18;;;3.50;;
51332;SDS011;37417;48.118;11.734;2022-08-30T08:11:37;4.35;;;3.70;;
51332;SDS011;37417;48.118;11.734;2022-08-30T08:14:25;6.57;;;4.07;;
51332;SDS011;37417;48.118;11.734;2022-08-30T08:17:10;4.95;;;3.45;;
51332;SDS011;37417;48.118;11.734;2022-08-30T08:19:56;4.82;;;3.78;;
51332;SDS011;37417;48.118;11.734;2022-08-30T08:22:41;9.43;;;3.15;;
51332;SDS011;37417;48.118;11.734;2022-08-30T08:25:27;3.58;;;3.28;;
51332;SDS011;37417;48.118;11.734;2022-08-30T08:28:12;3.55;;;3.17;;
51332;SDS011;37417;48.118;11.734;2022-08-30T08:30:58;5.88;;;3.28;;
51332;SDS011;37417;48.118;11.734;2022-08-30T08:33:44;3.45;;;3.00;;
51332;SDS011;37417;48.118;11.734;2022-08-30T08:36:30;4.13;;;3.15;;
51332;SDS011;37417;48.118;11.734;2022-08-30T08:39:16;9.38;;;3.95;;
51332;SDS011;37417;48.118;11.734;2022-08-30T08:45:03;3.22;;;2.72;;
51332;SDS011;37417;48.118;11.734;2022-08-30T08:50:53;4.20;;;3.28;;
51332;SDS011;37417;48.118;11.734;2022-08-30T08:54:09;5.00;;;2.92;;
51332;SDS011;37417;48.118;11.734;2022-08-30T08:56:55;3.70;;;3.03;;
51332;SDS011;37417;48.118;11.734;2022-08-30T08:59:41;3.70;;;3.08;;
51332;SDS011;37417;48.118;11.734;2022-08-30T09:02:28;3.85;;;2.85;;
51332;SDS011;37417;48.118;11.734;2022-08-30T09:05:17;4.50;;;3.28;;
51332;SDS011;37417;48.118;11.734;2022-08-30T09:08:05;8.20;;;3.17;;
51332;SDS011;37417;48.118;11.734;2022-08-30T09:10:56;3.55;;;3.25;;
51332;SDS011;37417;48.118;11.734;2022-08-30T09:13:43;6.15;;;3.45;;
51332;SDS011;37417;48.118;11.734;2022-08-30T09:19:40;4.32;;;3.45;;
51332;SDS011;37417;48.118;11.734;2022-08-30T09:25:23;3.47;;;2.90;;
51332;SDS011;37417;48.118;11.734;2022-08-30T09:28:10;3.58;;;2.53;;
51332;SDS011;37417;48.118;11.734;2022-08-30T09:30:58;2.78;;;2.58;;
51332;SDS011;37417;48.118;11.734;2022-08-30T09:33:53;5.60;;;3.40;;
51332;SDS011;37417;48.118;11.734;2022-08-30T09:39:25;3.00;;;2.67;;
51332;SDS011;37417;48.118;11.734;2022-08-30T09:42:13;3.53;;;2.90;;
51332;SDS011;37417;48.118;11.734;2022-08-30T09:44:59;5.40;;;2.53;;
51332;SDS011;37417;48.118;11.734;2022-08-30T09:47:57;3.22;;;2.58;;
51332;SDS011;37417;48.118;11.734;2022-08-30T09:50:42;3.22;;;2.92;;
51332;SDS011;37417;48.118;11.734;2022-08-30T09:53:33;4.65;;;3.05;;
51332;SDS011;37417;48.118;11.734;2022-08-30T09:56:30;5.85;;;2.63;;
51332;SDS011;37417;48.118;11.734;2022-08-30T10:07:59;4.30;;;2.75;;
51332;SDS011;37417;48.118;11.734;2022-08-30T10:10:49;6.45;;;3.30;;
51332;SDS011;37417;48.118;11.734;2022-08-30T10:13:52;3.58;;;3.05;;
51332;SDS011;37417;48.118;11.734;2022-08-30T10:16:45;4.05;;;3.00;;
51332;SDS011;37417;48.118;11.734;2022-08-30T10:22:24;5.40;;;2.72;;
51332;SDS011;37417;48.118;11.734;2022-08-30T10:25:32;3.95;;;2.72;;
51332;SDS011;37417;48.118;11.734;2022-08-30T10:31:10;2.50;;;2.30;;
51332;SDS011;37417;48.118;11.734;2022-08-30T10:34:02;3.33;;;2.53;;
51332;SDS011;37417;48.118;11.734;2022-08-30T10:36:57;2.78;;;2.33;;
51332;SDS011;37417;48.118;11.734;2022-08-30T10:39:51;4.57;;;2.20;;
51332;SDS011;37417;48.118;11.734;2022-08-30T10:42:37;4.18;;;2.08;;
51332;SDS011;37417;48.118;11.734;2022-08-30T10:45:23;3.78;;;2.25;;
51332;SDS011;37417;48.118;11.734;2022-08-30T10:48:16;3.55;;;2.45;;
51332;SDS011;37417;48.118;11.734;2022-08-30T10:51:08;2.75;;;2.47;;
51332;SDS011;37417;48.118;11.734;2022-08-30T10:53:56;2.25;;;2.05;;
51332;SDS011;37417;48.118;11.734;2022-08-30T10:56:46;2.42;;;2.20;;
51332;SDS011;37417;48.118;11.734;2022-08-30T10:59:33;6.28;;;2.60;;
51332;SDS011;37417;48.118;11.734;2022-08-30T11:05:26;3.97;;;2.80;;
51332;SDS011;37417;48.118;11.734;2022-08-30T11:08:29;2.67;;;2.17;;
51332;SDS011;37417;48.118;11.734;2022-08-30T11:11:40;3.05;;;2.10;;
51332;SDS011;37417;48.118;11.734;2022-08-30T11:14:27;2.92;;;2.00;;
51332;SDS011;37417;48.118;11.734;2022-08-30T11:20:21;2.42;;;2.22;;
51332;SDS011;37417;48.118;11.734;2022-08-30T11:26:09;3.38;;;2.47;;
51332;SDS011;37417;48.118;11.734;2022-08-30T11:31:43;4.00;;;2.17;;
51332;SDS011;37417;48.118;11.734;2022-08-30T11:35:14;3.47;;;2.20;;
51332;SDS011;37417;48.118;11.734;2022-08-30T11:37:41;2.63;;;2.00;;
51332;SDS011;37417;48.118;11.734;2022-08-30T11:52:05;4.65;;;2.92;;
51332;SDS011;37417;48.118;11.734;2022-08-30T12:00:32;2.72;;;2.40;;
51332;SDS011;37417;48.118;11.734;2022-08-30T12:06:05;2.65;;;2.28;;
51332;SDS011;37417;48.118;11.734;2022-08-30T12:08:51;4.40;;;2.30;;
51332;SDS011;37417;48.118;11.734;2022-08-30T12:14:33;2.83;;;2.22;;
51332;SDS011;37417;48.118;11.734;2022-08-30T12:17:25;4.70;;;2.25;;
51332;SDS011;37417;48.118;11.734;2022-08-30T12:20:45;1.87;;;1.57;;
51332;SDS011;37417;48.118;11.734;2022-08-30T12:23:32;2.92;;;1.92;;
51332;SDS011;37417;48.118;11.734;2022-08-30T12:32:03;10.65;;;2.45;;
51332;SDS011;37417;48.118;11.734;2022-08-30T12:34:53;7.75;;;2.65;;
51332;SDS011;37417;48.118;11.734;2022-08-30T12:37:39;3.90;;;2.30;;
51332;SDS011;37417;48.118;11.734;2022-08-30T12:40:26;2.47;;;2.22;;
51332;SDS011;37417;48.118;11.734;2022-08-30T12:43:17;3.05;;;2.20;;
51332;SDS011;37417;48.118;11.734;2022-08-30T12:46:07;2.75;;;2.40;;
51332;SDS011;37417;48.118;11.734;2022-08-30T12:48:53;2.60;;;2.05;;
51332;SDS011;37417;48.118;11.734;2022-08-30T12:51:40;3.00;;;1.92;;
51332;SDS011;37417;48.118;11.734;2022-08-30T12:54:27;3.45;;;2.45;;
51332;SDS011;37417;48.118;11.734;2022-08-30T12:57:13;3.55;;;2.17;;
51332;SDS011;37417;48.118;11.734;2022-08-30T13:00:29;5.13;;;2.53;;
51332;SDS011;37417;48.118;11.734;2022-08-30T13:03:28;2.40;;;2.20;;
51332;SDS011;37417;48.118;11.734;2022-08-30T13:06:33;2.35;;;2.13;;
51332;SDS011;37417;48.118;11.734;2022-08-30T13:09:21;2.90;;;2.50;;
51332;SDS011;37417;48.118;11.734;2022-08-30T13:18:11;4.00;;;2.58;;
51332;SDS011;37417;48.118;11.734;2022-08-30T13:21:10;3.05;;;2.72;;
51332;SDS011;37417;48.118;11.734;2022-08-30T13:23:58;2.95;;;2.63;;
51332;SDS011;37417;48.118;11.734;2022-08-30T13:26:43;3.58;;;2.92;;
51332;SDS011;37417;48.118;11.734;2022-08-30T13:29:29;4.38;;;2.00;;
51332;SDS011;37417;48.118;11.734;2022-08-30T13:32:16;2.60;;;2.40;;
51332;SDS011;37417;48.118;11.734;2022-08-30T13:35:02;4.57;;;2.20;;
51332;SDS011;37417;48.118;11.734;2022-08-30T13:37:48;2.22;;;1.98;;
51332;SDS011;37417;48.118;11.734;2022-08-30T13:40:34;3.88;;;2.60;;
51332;SDS011;37417;48.118;11.734;2022-08-30T13:43:20;3.38;;;2.17;;
51332;SDS011;37417;48.118;11.734;2022-08-30T13:46:05;2.20;;;1.88;;
51332;SDS011;37417;48.118;11.734;2022-08-30T13:48:52;2.22;;;2.00;;
51332;SDS011;37417;48.118;11.734;2022-08-30T13:51:42;6.75;;;2.85;;
51332;SDS011;37417;48.118;11.734;2022-08-30T13:54:27;6.32;;;2.15;;
51332;SDS011;37417;48.118;11.734;2022-08-30T13:57:13;4.15;;;2.17;;
51332;SDS011;37417;48.118;11.734;2022-08-30T13:59:59;2.40;;;2.20;;
51332;SDS011;37417;48.118;11.734;2022-08-30T14:02:45;2.58;;;2.13;;
51332;SDS011;37417;48.118;11.734;2022-08-30T14:05:32;2.83;;;2.58;;
51332;SDS011;37417;48.118;11.734;2022-08-30T14:08:19;2.65;;;2.45;;
51332;SDS011;37417;48.118;11.734;2022-08-30T14:11:05;2.92;;;2.50;;
51332;SDS011;37417;48.118;11.734;2022-08-30T14:13:51;4.30;;;2.25;;
51332;SDS011;37417;48.118;11.734;2022-08-30T14:16:38;4.45;;;2.70;;
51332;SDS011;37417;48.118;11.734;2022-08-30T14:19:24;4.10;;;2.35;;
51332;SDS011;37417;48.118;11.734;2022-08-30T14:22:09;3.53;;;2.72;;
51332;SDS011;37417;48.118;11.734;2022-08-30T14:24:55;3.55;;;2.00;;
51332;SDS011;37417;48.118;11.734;2022-08-30T14:27:40;2.53;;;2.25;;
51332;SDS011;37417;48.118;11.734;2022-08-30T14:30:26;3.60;;;2.20;;
51332;SDS011;37417;48.118;11.734;2022-08-30T14:33:12;3.30;;;2.15;;
51332;SDS011;37417;48.118;11.734;2022-08-30T14:35:58;2.55;;;2.35;;
51332;SDS011;37417;48.118;11.734;2022-08-30T14:38:44;3.03;;;2.03;;
51332;SDS011;37417;48.118;11.734;2022-08-30T14:41:29;5.10;;;2.45;;
51332;SDS011;37417;48.118;11.734;2022-08-30T14:44:16;5.60;;;2.40;;
51332;SDS011;37417;48.118;11.734;2022-08-30T14:47:02;6.28;;;2.40;;
51332;SDS011;37417;48.118;11.734;2022-08-30T14:49:48;2.17;;;1.98;;
51332;SDS011;37417;48.118;11.734;2022-08-30T14:52:34;4.25;;;2.15;;
51332;SDS011;37417;48.118;11.734;2022-08-30T14:55:19;3.55;;;1.88;;
51332;SDS011;37417;48.118;11.734;2022-08-30T14:58:05;4.50;;;2.30;;
51332;SDS011;37417;48.118;11.734;2022-08-30T15:00:51;2.40;;;2.20;;
51332;SDS011;37417;48.118;11.734;2022-08-30T15:03:37;2.28;;;1.95;;
51332;SDS011;37417;48.118;11.734;2022-08-30T15:06:23;3.97;;;2.50;;
51332;SDS011;37417;48.118;11.734;2022-08-30T15:09:10;1.98;;;1.85;;
51332;SDS011;37417;48.118;11.734;2022-08-30T15:11:56;2.15;;;1.95;;
51332;SDS011;37417;48.118;11.734;2022-08-30T15:14:43;4.15;;;1.42;;
51332;SDS011;37417;48.118;11.734;2022-08-30T15:17:29;6.13;;;1.85;;
51332;SDS011;37417;48.118;11.734;2022-08-30T15:20:15;2.38;;;1.80;;
51332;SDS011;37417;48.118;11.734;2022-08-30T15:23:04;4.25;;;1.70;;
51332;SDS011;37417;48.118;11.734;2022-08-30T15:25:49;3.03;;;1.90;;
51332;SDS011;37417;48.118;11.734;2022-08-30T15:28:35;4.05;;;1.85;;
51332;SDS011;37417;48.118;11.734;2022-08-30T15:31:22;9.75;;;1.80;;
51332;SDS011;37417;48.118;11.734;2022-08-30T15:34:09;2.22;;;1.45;;
51332;SDS011;37417;48.118;11.734;2022-08-30T15:36:55;2.80;;;2.10;;
51332;SDS011;37417;48.118;11.734;2022-08-30T15:39:41;5.82;;;1.92;;
51332;SDS011;37417;48.118;11.734;2022-08-30T15:42:26;2.35;;;1.67;;
51332;SDS011;37417;48.118;11.734;2022-08-30T15:45:12;7.97;;;2.03;;
51332;SDS011;37417;48.118;11.734;2022-08-30T15:47:58;2.25;;;1.67;;
51332;SDS011;37417;48.118;11.734;2022-08-30T15:50:44;1.95;;;1.50;;
51332;SDS011;37417;48.118;11.734;2022-08-30T15:53:31;2.83;;;1.95;;
51332;SDS011;37417;48.118;11.734;2022-08-30T15:56:17;2.33;;;2.10;;
51332;SDS011;37417;48.118;11.734;2022-08-30T15:59:02;2.97;;;2.03;;
51332;SDS011;37417;48.118;11.734;2022-08-30T16:01:48;3.00;;;2.03;;
51332;SDS011;37417;48.118;11.734;2022-08-30T16:04:34;2.33;;;1.90;;
51332;SDS011;37417;48.118;11.734;2022-08-30T16:07:20;4.88;;;2.25;;
51332;SDS011;37417;48.118;11.734;2022-08-30T16:10:06;2.25;;;1.80;;
51332;SDS011;37417;48.118;11.734;2022-08-30T16:12:52;2.08;;;1.90;;
51332;SDS011;37417;48.118;11.734;2022-08-30T16:15:38;4.00;;;2.13;;
51332;SDS011;37417;48.118;11.734;2022-08-30T16:18:24;2.30;;;2.08;;
51332;SDS011;37417;48.118;11.734;2022-08-30T16:21:11;2.40;;;2.17;;
51332;SDS011;37417;48.118;11.734;2022-08-30T16:23:57;3.08;;;2.60;;
51332;SDS011;37417;48.118;11.734;2022-08-30T16:26:43;4.13;;;2.35;;
51332;SDS011;37417;48.118;11.734;2022-08-30T16:29:29;7.45;;;2.75;;
51332;SDS011;37417;48.118;11.734;2022-08-30T16:32:15;3.22;;;2.38;;
51332;SDS011;37417;48.118;11.734;2022-08-30T16:35:00;4.88;;;2.17;;
51332;SDS011;37417;48.118;11.734;2022-08-30T16:37:46;3.88;;;2.35;;
51332;SDS011;37417;48.118;11.734;2022-08-30T16:40:31;2.30;;;2.05;;
51332;SDS011;37417;48.118;11.734;2022-08-30T16:43:17;2.92;;;2.20;;
51332;SDS011;37417;48.118;11.734;2022-08-30T16:46:03;5.80;;;2.22;;
51332;SDS011;37417;48.118;11.734;2022-08-30T16:48:49;4.97;;;2.20;;
51332;SDS011;37417;48.118;11.734;2022-08-30T16:51:35;7.57;;;2.50;;
51332;SDS011;37417;48.118;11.734;2022-08-30T16:54:21;2.83;;;2.25;;
51332;SDS011;37417;48.118;11.734;2022-08-30T16:57:07;5.22;;;2.88;;
51332;SDS011;37417;48.118;11.734;2022-08-30T16:59:53;2.65;;;2.33;;
51332;SDS011;37417;48.118;11.734;2022-08-30T17:02:38;3.22;;;2.47;;
51332;SDS011;37417;48.118;11.734;2022-08-30T17:05:24;3.47;;;2.05;;
51332;SDS011;37417;48.118;11.734;2022-08-30T17:08:10;2.90;;;2.55;;
51332;SDS011;37417;48.118;11.734;2022-08-30T17:10:55;2.78;;;2.17;;
51332;SDS011;37417;48.118;11.734;2022-08-30T17:13:41;3.35;;;2.55;;
51332;SDS011;37417;48.118;11.734;2022-08-30T17:16:26;3.05;;;2.47;;
51332;SDS011;37417;48.118;11.734;2022-08-30T17:19:13;3.22;;;2.05;;
51332;SDS011;37417;48.118;11.734;2022-08-30T17:21:59;2.60;;;2.40;;
51332;SDS011;37417;48.118;11.734;2022-08-30T17:24:45;7.28;;;2.45;;
51332;SDS011;37417;48.118;11.734;2022-08-30T17:27:31;3.30;;;2.70;;
51332;SDS011;37417;48.118;11.734;2022-08-30T17:30:16;3.92;;;3.53;;
51332;SDS011;37417;48.118;11.734;2022-08-30T17:33:02;5.05;;;3.25;;
51332;SDS011;37417;48.118;11.734;2022-08-30T17:35:48;5.15;;;3.28;;
51332;SDS011;37417;48.118;11.734;2022-08-30T17:38:35;5.63;;;3.22;;
51332;SDS011;37417;48.118;11.734;2022-08-30T17:41:21;8.32;;;3.33;;
51332;SDS011;37417;48.118;11.734;2022-08-30T17:44:06;4.45;;;2.90;;
51332;SDS011;37417;48.118;11.734;2022-08-30T17:46:52;3.95;;;3.17;;